Time;durP1;ratioP1;P1;durP2;ratioP2;P2;SDS_P1;SDS_P2;PMS_P1;PMS_P2;Temp;Humidity;BMP_temperature;BMP_pressure;BME280_temperature;BME280_humidity;BME280_pressure;Samples;Min_cycle;Max_cycle;Signal;HPM_P1;HPM_P2
2022/08/25 00:00:58;;;;;;;8.25;7.35;;;21.20;99.90;;;;;;5106175;28;20576;-84
2022/08/25 00:03:24;;;;;;;12.50;7.18;;;21.20;99.90;;;;;;5113643;28;20084;-83
2022/08/25 00:05:50;;;;;;;7.30;6.60;;;21.10;99.90;;;;;;5111160;28;20023;-84
2022/08/25 00:08:15;;;;;;;8.30;7.00;;;21.10;99.90;;;;;;5112944;28;20111;-82
2022/08/25 00:10:41;;;;;;;12.27;7.15;;;21.10;99.90;;;;;;5102433;28;20073;-84
2022/08/25 00:13:07;;;;;;;10.70;7.82;;;21.10;99.90;;;;;;5106762;28;20378;-82
2022/08/25 00:15:33;;;;;;;9.82;7.13;;;21.10;99.90;;;;;;5108095;28;20023;-81
2022/08/25 00:17:59;;;;;;;13.02;8.30;;;21.10;99.90;;;;;;5115515;28;20046;-81
2022/08/25 00:20:26;;;;;;;12.00;7.80;;;21.00;99.90;;;;;;5111044;28;20095;-81
2022/08/25 00:22:51;;;;;;;11.32;7.68;;;21.00;99.90;;;;;;5120107;28;20544;-80
2022/08/25 00:25:17;;;;;;;10.02;7.10;;;21.00;99.90;;;;;;5125954;28;20039;-80
2022/08/25 00:27:43;;;;;;;9.75;8.07;;;21.00;99.90;;;;;;5120053;28;20072;-83
2022/08/25 00:30:09;;;;;;;8.40;6.75;;;21.00;99.90;;;;;;5115668;28;20566;-80
2022/08/25 00:32:35;;;;;;;10.80;7.50;;;21.00;99.90;;;;;;5112069;28;20059;-82
2022/08/25 00:35:01;;;;;;;9.52;8.10;;;20.90;99.90;;;;;;5104778;28;20749;-80
2022/08/25 00:37:27;;;;;;;10.07;7.70;;;20.90;99.90;;;;;;5104743;28;20034;-82
2022/08/25 00:39:55;;;;;;;10.30;8.25;;;20.90;99.90;;;;;;5111306;28;20130;-82
2022/08/25 00:42:21;;;;;;;11.68;8.57;;;20.90;99.90;;;;;;5110514;28;20084;-86
2022/08/25 00:44:47;;;;;;;11.43;7.93;;;20.90;99.90;;;;;;5111636;28;20115;-83
2022/08/25 00:47:13;;;;;;;12.43;7.88;;;20.90;99.90;;;;;;5101566;28;20032;-82
2022/08/25 00:49:42;;;;;;;11.45;8.50;;;20.80;99.90;;;;;;5108141;28;20031;-83
2022/08/25 00:52:34;;;;;;;13.63;8.27;;;20.80;99.90;;;;;;5111468;28;20505;-83
2022/08/25 00:55:04;;;;;;;8.55;6.93;;;20.90;99.90;;;;;;5108256;28;20048;-84
2022/08/25 00:57:35;;;;;;;17.08;8.23;;;20.80;99.90;;;;;;5099557;28;20502;-83
2022/08/25 01:00:03;;;;;;;12.82;8.38;;;20.70;99.90;;;;;;5101725;28;20558;-84
2022/08/25 01:02:29;;;;;;;11.63;9.00;;;20.70;99.90;;;;;;5106037;28;20023;-83
2022/08/25 01:04:54;;;;;;;10.25;8.00;;;20.60;99.90;;;;;;5109145;28;20554;-83
2022/08/25 01:07:22;;;;;;;11.50;8.85;;;20.60;99.90;;;;;;5106574;28;20118;-85
2022/08/25 01:09:50;;;;;;;12.02;8.43;;;20.60;99.90;;;;;;5099978;28;20073;-83
2022/08/25 01:12:15;;;;;;;15.30;8.27;;;20.60;99.90;;;;;;5101945;27;20034;-83
2022/08/25 01:14:45;;;;;;;11.52;9.00;;;20.60;99.90;;;;;;5110967;28;20035;-84
2022/08/25 01:17:11;;;;;;;13.18;8.15;;;20.60;99.90;;;;;;5107317;28;20494;-83
2022/08/25 01:19:36;;;;;;;11.32;8.45;;;20.60;99.90;;;;;;5101264;28;20050;-83
2022/08/25 01:22:02;;;;;;;12.13;8.30;;;20.60;99.90;;;;;;5107036;28;20040;-80
2022/08/25 01:24:32;;;;;;;11.75;8.63;;;20.60;99.90;;;;;;5110739;28;20711;-82
2022/08/25 01:26:58;;;;;;;11.10;8.63;;;20.60;99.90;;;;;;5103725;28;20035;-81
2022/08/25 01:29:24;;;;;;;10.75;8.70;;;20.60;99.90;;;;;;5108264;28;20047;-83
2022/08/25 01:31:55;;;;;;;11.10;8.38;;;20.50;99.90;;;;;;5106807;28;20024;-83
2022/08/25 01:34:21;;;;;;;10.05;8.23;;;20.50;99.90;;;;;;5117141;27;20035;-82
2022/08/25 01:36:47;;;;;;;14.05;9.55;;;20.50;99.90;;;;;;5106621;28;20028;-82
2022/08/25 01:39:13;;;;;;;15.70;8.90;;;20.50;99.90;;;;;;5105098;28;20024;-82
2022/08/25 01:41:46;;;;;;;11.18;8.77;;;20.50;99.90;;;;;;5111117;28;20435;-82
2022/08/25 01:44:14;;;;;;;17.45;9.93;;;20.50;99.90;;;;;;5104992;28;20063;-84
2022/08/25 01:46:40;;;;;;;15.52;9.23;;;20.40;99.90;;;;;;5097345;28;20027;-84
2022/08/25 01:49:06;;;;;;;15.40;9.52;;;20.40;99.90;;;;;;5105751;28;20397;-82
2022/08/25 01:51:47;;;;;;;9.65;8.48;;;20.40;99.90;;;;;;5105684;28;20039;-82
2022/08/25 01:54:12;;;;;;;12.40;9.43;;;20.40;99.90;;;;;;5102487;28;20100;-82
2022/08/25 01:56:38;;;;;;;10.77;8.88;;;20.40;99.90;;;;;;5109977;28;20077;-82
2022/08/25 01:59:04;;;;;;;11.85;8.68;;;20.40;99.90;;;;;;5103011;28;20031;-85
2022/08/25 02:01:29;;;;;;;11.70;9.25;;;20.30;99.90;;;;;;5104985;28;20712;-81
2022/08/25 02:03:55;;;;;;;11.63;9.05;;;20.30;99.90;;;;;;5102797;28;20035;-81
2022/08/25 02:06:32;;;;;;;12.68;10.45;;;20.30;99.90;;;;;;5108941;28;20032;-83
2022/08/25 02:09:09;;;;;;;11.68;8.98;;;20.30;99.90;;;;;;5110006;28;20030;-82
2022/08/25 02:11:37;;;;;;;12.85;8.55;;;20.30;99.90;;;;;;5109818;28;20034;-86
2022/08/25 02:14:03;;;;;;;13.25;10.30;;;20.30;99.90;;;;;;5109237;28;20032;-83
2022/08/25 02:16:32;;;;;;;15.60;9.35;;;20.30;99.90;;;;;;5099121;28;20077;-81
2022/08/25 02:18:58;;;;;;;14.95;10.05;;;20.30;99.90;;;;;;5105869;28;20035;-82
2022/08/25 02:21:24;;;;;;;12.80;10.20;;;20.30;99.90;;;;;;5105146;28;20027;-81
2022/08/25 02:23:50;;;;;;;11.68;9.57;;;20.30;99.90;;;;;;5102266;28;20039;-80
2022/08/25 02:26:17;;;;;;;12.85;9.88;;;20.30;99.90;;;;;;5097510;28;20649;-82
2022/08/25 02:28:44;;;;;;;16.33;11.40;;;20.30;99.90;;;;;;5093171;28;20509;-83
2022/08/25 02:31:10;;;;;;;12.18;9.27;;;20.30;99.90;;;;;;5123991;27;20128;-84
2022/08/25 02:33:36;;;;;;;15.25;11.13;;;20.20;99.90;;;;;;5103817;28;20036;-84
2022/08/25 02:36:03;;;;;;;15.45;10.80;;;20.20;99.90;;;;;;5102303;28;20672;-83
2022/08/25 02:38:29;;;;;;;14.13;10.90;;;20.20;99.90;;;;;;5107857;28;20028;-84
2022/08/25 02:40:59;;;;;;;16.65;11.57;;;20.20;99.90;;;;;;5098335;28;20095;-86
2022/08/25 02:43:25;;;;;;;15.05;11.38;;;20.20;99.90;;;;;;5109708;28;20173;-83
2022/08/25 02:45:52;;;;;;;13.20;11.30;;;20.20;99.90;;;;;;5099238;28;20028;-82
2022/08/25 02:48:18;;;;;;;14.82;11.23;;;20.20;99.90;;;;;;5107831;28;20093;-84
2022/08/25 02:50:50;;;;;;;11.60;10.10;;;20.10;99.90;;;;;;5104951;28;20023;-83
2022/08/25 02:53:16;;;;;;;15.27;11.03;;;20.10;99.90;;;;;;5106580;28;20031;-82
2022/08/25 02:55:41;;;;;;;14.38;11.13;;;20.10;99.90;;;;;;5106336;28;20281;-83
2022/08/25 02:58:07;;;;;;;15.23;11.18;;;20.10;99.90;;;;;;5104428;28;20031;-81
2022/08/25 03:00:33;;;;;;;14.38;11.10;;;20.10;99.90;;;;;;5108386;28;20446;-81
2022/08/25 03:02:59;;;;;;;13.77;10.40;;;20.00;99.90;;;;;;5101281;28;20066;-82
2022/08/25 03:05:24;;;;;;;13.00;10.95;;;20.00;99.90;;;;;;5107129;28;20386;-83
2022/08/25 03:07:50;;;;;;;16.40;11.50;;;20.00;99.90;;;;;;5108858;28;20023;-83
2022/08/25 03:10:17;;;;;;;12.43;10.73;;;20.00;99.90;;;;;;5107053;28;20019;-84
2022/08/25 03:12:44;;;;;;;15.52;10.90;;;20.00;99.90;;;;;;5089621;28;20031;-84
2022/08/25 03:15:11;;;;;;;14.05;11.20;;;20.00;99.90;;;;;;5109614;28;20401;-84
2022/08/25 03:17:36;;;;;;;14.10;11.38;;;20.00;99.90;;;;;;5105241;28;20082;-84
2022/08/25 03:20:05;;;;;;;14.13;11.55;;;20.00;99.90;;;;;;5109050;28;20497;-82
2022/08/25 03:22:31;;;;;;;16.40;11.82;;;20.00;99.90;;;;;;5100992;28;20036;-84
2022/08/25 03:26:52;;;;;;;22.33;12.70;;;19.90;99.90;;;;;;5103495;28;20032;-83
2022/08/25 03:27:43;;;;;;;19.83;13.43;;;19.90;99.90;;;;;;5101238;28;20035;-83
2022/08/25 03:30:09;;;;;;;16.35;12.43;;;19.90;99.90;;;;;;5108395;28;20028;-84
2022/08/25 03:32:35;;;;;;;16.17;12.40;;;19.90;99.90;;;;;;5098003;28;20036;-85
2022/08/25 03:35:00;;;;;;;21.13;13.18;;;19.90;99.90;;;;;;5104763;28;20115;-82
2022/08/25 03:37:26;;;;;;;15.13;11.55;;;19.90;99.90;;;;;;5109512;28;20469;-81
2022/08/25 03:39:52;;;;;;;16.60;10.52;;;19.90;99.90;;;;;;5113443;28;20092;-83
2022/08/25 03:42:18;;;;;;;16.42;11.75;;;19.90;99.90;;;;;;5113211;28;20036;-82
2022/08/25 03:44:44;;;;;;;20.13;13.35;;;19.90;99.90;;;;;;5114572;27;20108;-83
2022/08/25 03:47:09;;;;;;;19.75;13.43;;;19.90;99.90;;;;;;5114852;28;20027;-83
2022/08/25 03:49:35;;;;;;;16.67;12.52;;;19.90;99.90;;;;;;5115327;28;20028;-82
2022/08/25 03:52:01;;;;;;;17.08;12.23;;;19.90;99.90;;;;;;5120195;28;20079;-83
2022/08/25 03:54:26;;;;;;;14.55;11.48;;;19.90;99.90;;;;;;5129148;27;20023;-81
2022/08/25 03:56:52;;;;;;;14.13;11.27;;;19.90;99.90;;;;;;5123474;28;20539;-84
2022/08/25 03:59:18;;;;;;;17.65;12.40;;;19.80;99.90;;;;;;5113818;28;20062;-83
2022/08/25 04:01:45;;;;;;;14.35;10.68;;;19.80;99.90;;;;;;5117424;27;20035;-83
2022/08/25 04:04:12;;;;;;;13.07;11.10;;;19.90;99.90;;;;;;5108554;28;20061;-83
2022/08/25 04:06:39;;;;;;;18.38;11.50;;;19.80;99.90;;;;;;5109238;28;20032;-83
2022/08/25 04:09:05;;;;;;;19.42;12.85;;;19.80;99.90;;;;;;5112275;28;20058;-84
2022/08/25 04:11:31;;;;;;;15.88;11.95;;;19.80;99.90;;;;;;5103291;28;20027;-83
2022/08/25 04:13:58;;;;;;;17.70;12.00;;;19.80;99.90;;;;;;5112386;28;20039;-82
2022/08/25 04:16:26;;;;;;;15.40;13.27;;;19.80;99.90;;;;;;5113321;28;20039;-83
2022/08/25 04:18:53;;;;;;;15.10;11.65;;;19.80;99.90;;;;;;5111188;27;20047;-85
2022/08/25 04:21:20;;;;;;;14.77;11.98;;;19.80;99.90;;;;;;5109559;28;20110;-83
2022/08/25 04:23:48;;;;;;;17.75;12.60;;;19.90;99.90;;;;;;5111002;28;20051;-83
2022/08/25 04:26:18;;;;;;;15.90;12.25;;;19.80;99.90;;;;;;5109880;28;20132;-86
2022/08/25 04:28:44;;;;;;;18.25;12.98;;;19.80;99.90;;;;;;5103659;28;20485;-83
2022/08/25 04:31:12;;;;;;;17.55;12.27;;;19.80;99.90;;;;;;5110923;28;20042;-82
2022/08/25 04:33:38;;;;;;;17.02;12.48;;;19.80;99.90;;;;;;5103297;28;20028;-85
2022/08/25 04:36:05;;;;;;;17.13;14.98;;;19.90;99.90;;;;;;5119144;27;20043;-82
2022/08/25 04:38:31;;;;;;;17.95;14.75;;;19.80;99.90;;;;;;5117690;28;20437;-84
2022/08/25 04:41:01;;;;;;;22.80;13.98;;;19.90;99.90;;;;;;5094555;28;20028;-82
2022/08/25 04:43:28;;;;;;;21.55;14.20;;;19.80;99.90;;;;;;5110330;28;20452;-83
2022/08/25 04:45:54;;;;;;;18.00;12.90;;;19.90;99.90;;;;;;5113534;28;20127;-83
2022/08/25 04:48:20;;;;;;;17.73;12.55;;;19.90;99.90;;;;;;5120423;28;20043;-81
2022/08/25 04:50:46;;;;;;;16.08;11.38;;;19.90;99.90;;;;;;5093636;28;20073;-84
2022/08/25 04:53:12;;;;;;;15.55;12.15;;;19.90;99.90;;;;;;5107769;27;20031;-82
2022/08/25 04:55:45;;;;;;;18.20;13.63;;;19.90;99.90;;;;;;5108623;28;20134;-85
2022/08/25 04:58:12;;;;;;;16.95;12.55;;;19.90;99.90;;;;;;5107326;27;20028;-82
2022/08/25 05:00:39;;;;;;;15.38;13.15;;;20.00;99.90;;;;;;5115012;28;20027;-84
2022/08/25 05:03:05;;;;;;;16.45;12.10;;;20.00;99.90;;;;;;5112101;28;20032;-85
2022/08/25 05:05:34;;;;;;;17.50;12.32;;;20.00;99.90;;;;;;5104668;28;20035;-82
2022/08/25 05:07:59;;;;;;;18.10;12.88;;;20.00;99.90;;;;;;5107435;28;20028;-84
2022/08/25 05:10:25;;;;;;;23.17;13.50;;;20.10;99.90;;;;;;5111369;27;20089;-84
2022/08/25 05:12:51;;;;;;;17.63;12.70;;;20.10;99.90;;;;;;5117905;28;20047;-83
2022/08/25 05:18:01;;;;;;;19.73;12.95;;;20.10;99.90;;;;;;5111979;28;20083;-80
2022/08/25 05:20:26;;;;;;;16.55;13.10;;;20.20;99.90;;;;;;5116229;28;20035;-80
2022/08/25 05:22:52;;;;;;;15.65;12.90;;;20.20;99.90;;;;;;5117705;28;20548;-81
2022/08/25 05:25:17;;;;;;;21.08;14.02;;;20.20;99.90;;;;;;5113253;28;20038;-81
2022/08/25 05:27:43;;;;;;;17.58;12.82;;;20.30;99.90;;;;;;5100013;27;20024;-82
2022/08/25 05:30:10;;;;;;;16.13;12.23;;;20.30;99.90;;;;;;5108905;28;20032;-83
2022/08/25 05:32:36;;;;;;;17.90;11.23;;;20.30;99.90;;;;;;5105272;28;20027;-83
2022/08/25 05:35:03;;;;;;;17.13;12.63;;;20.40;99.90;;;;;;5103246;28;20061;-81
2022/08/25 05:37:29;;;;;;;18.33;12.85;;;20.40;99.90;;;;;;5102330;28;20032;-82
2022/08/25 05:39:54;;;;;;;18.60;14.10;;;20.50;99.90;;;;;;5106739;28;20112;-82
2022/08/25 05:42:21;;;;;;;19.00;13.48;;;20.50;99.90;;;;;;5101859;28;20397;-86
2022/08/25 05:44:47;;;;;;;17.85;14.60;;;20.50;99.90;;;;;;5106447;28;20461;-84
2022/08/25 05:47:12;;;;;;;31.73;14.35;;;20.60;99.90;;;;;;5107143;28;20069;-83
2022/08/25 05:49:37;;;;;;;20.10;13.85;;;20.60;99.90;;;;;;5099184;28;20559;-83
2022/08/25 05:52:03;;;;;;;23.67;14.32;;;20.70;99.90;;;;;;5103297;28;20043;-82
2022/08/25 05:54:30;;;;;;;21.42;14.40;;;20.70;99.90;;;;;;5101670;28;20036;-85
2022/08/25 05:56:56;;;;;;;19.23;13.00;;;20.80;99.90;;;;;;5108803;28;20054;-83
2022/08/25 05:59:22;;;;;;;16.48;12.55;;;20.90;99.90;;;;;;5097885;28;20066;-83
2022/08/25 06:04:32;;;;;;;22.15;13.73;;;21.00;99.90;;;;;;5101772;28;20038;-86
2022/08/25 06:06:58;;;;;;;20.58;13.57;;;21.00;99.90;;;;;;5106726;28;20139;-83
2022/08/25 06:09:23;;;;;;;32.50;13.02;;;21.10;99.90;;;;;;5107873;28;20080;-80
2022/08/25 06:11:49;;;;;;;23.85;13.75;;;21.20;99.90;;;;;;5099059;28;20063;-82
2022/08/25 06:14:15;;;;;;;16.58;12.65;;;21.30;99.90;;;;;;5101847;28;20468;-82
2022/08/25 06:16:41;;;;;;;16.33;12.57;;;21.30;99.90;;;;;;5103566;28;20059;-82
2022/08/25 06:19:08;;;;;;;22.48;13.27;;;21.40;99.90;;;;;;5106360;28;20033;-83
2022/08/25 06:21:34;;;;;;;17.10;12.45;;;21.40;99.90;;;;;;5104888;28;20100;-82
2022/08/25 06:23:59;;;;;;;19.52;12.82;;;21.50;99.90;;;;;;5103360;28;20035;-82
2022/08/25 06:26:25;;;;;;;24.35;13.70;;;21.60;99.90;;;;;;5105258;28;20035;-81
2022/08/25 06:28:51;;;;;;;19.60;13.32;;;21.60;99.90;;;;;;5107186;28;20019;-81
2022/08/25 06:31:18;;;;;;;17.20;12.02;;;21.50;99.90;;;;;;5109029;28;20057;-82
2022/08/25 06:33:44;;;;;;;17.30;12.63;;;21.60;99.90;;;;;;5109526;28;20035;-83
2022/08/25 06:36:09;;;;;;;19.42;11.88;;;21.70;99.90;;;;;;5107636;28;20024;-82
2022/08/25 06:38:35;;;;;;;20.08;13.43;;;21.80;99.90;;;;;;5108651;28;20043;-82
2022/08/25 06:41:05;;;;;;;19.40;12.32;;;21.80;99.90;;;;;;5107416;28;20172;-83
2022/08/25 06:43:32;;;;;;;15.65;12.55;;;21.80;99.90;;;;;;5108958;28;20023;-85
2022/08/25 06:46:08;;;;;;;17.83;11.63;;;21.90;99.90;;;;;;5108304;28;20036;-83
2022/08/25 06:48:34;;;;;;;17.40;12.65;;;22.00;99.90;;;;;;5108115;28;20472;-83
2022/08/25 06:51:04;;;;;;;16.92;12.07;;;22.10;99.90;;;;;;5108382;28;20054;-82
2022/08/25 06:53:30;;;;;;;18.38;12.50;;;22.20;99.90;;;;;;5108916;28;20072;-82
2022/08/25 06:55:56;;;;;;;16.40;12.45;;;22.20;99.90;;;;;;5108962;28;20381;-83
2022/08/25 06:58:22;;;;;;;18.83;12.77;;;22.20;99.90;;;;;;5102397;28;20066;-84
2022/08/25 07:00:48;;;;;;;16.42;12.43;;;22.30;99.90;;;;;;5108725;28;20781;-84
2022/08/25 07:03:13;;;;;;;17.17;12.82;;;22.40;99.90;;;;;;5108521;28;20126;-82
2022/08/25 07:05:39;;;;;;;20.10;11.63;;;22.30;99.90;;;;;;5108265;28;20039;-83
2022/08/25 07:08:05;;;;;;;14.82;12.80;;;22.40;99.90;;;;;;5110698;28;20039;-84
2022/08/25 07:10:30;;;;;;;21.00;12.60;;;22.50;99.90;;;;;;5112965;28;20032;-84
2022/08/25 07:12:56;;;;;;;18.88;12.25;;;22.60;99.90;;;;;;5113866;28;20419;-82
2022/08/25 07:15:21;;;;;;;18.60;11.50;;;22.70;99.90;;;;;;5113435;28;20030;-82
2022/08/25 07:17:48;;;;;;;20.67;11.40;;;22.80;99.90;;;;;;5115350;28;20099;-83
2022/08/25 07:20:14;;;;;;;15.80;11.82;;;22.90;99.90;;;;;;5113888;28;20077;-85
2022/08/25 07:22:40;;;;;;;19.83;11.20;;;23.10;99.90;;;;;;5121729;28;20053;-83
2022/08/25 07:25:06;;;;;;;18.65;12.45;;;23.20;99.90;;;;;;5137338;28;20043;-83
2022/08/25 07:27:32;;;;;;;15.60;10.52;;;23.30;99.90;;;;;;5130266;28;20036;-83
2022/08/25 07:29:57;;;;;;;14.60;10.15;;;23.50;99.90;;;;;;5117994;28;20468;-80
2022/08/25 07:32:23;;;;;;;15.52;9.15;;;23.60;99.90;;;;;;5120469;28;20485;-80
2022/08/25 07:37:36;;;;;;;16.60;8.02;;;23.90;99.90;;;;;;5112953;28;20538;-81
2022/08/25 07:40:02;;;;;;;10.35;7.90;;;24.00;99.90;;;;;;5112947;28;20585;-81
2022/08/25 07:42:28;;;;;;;13.27;8.52;;;24.10;99.90;;;;;;5112130;28;20020;-88
2022/08/25 07:44:53;;;;;;;9.30;7.50;;;24.30;99.90;;;;;;5095130;28;20036;-81
2022/08/25 07:47:19;;;;;;;13.27;7.55;;;24.50;99.90;;;;;;5104758;28;20489;-83
2022/08/25 07:49:44;;;;;;;11.68;8.52;;;24.60;99.90;;;;;;5111937;28;20218;-83
2022/08/25 07:52:10;;;;;;;9.57;7.43;;;24.80;99.90;;;;;;5107579;28;20027;-83
2022/08/25 07:54:35;;;;;;;12.05;7.63;;;24.90;99.90;;;;;;5110814;28;20032;-84
2022/08/25 07:57:03;;;;;;;8.95;7.40;;;25.10;99.90;;;;;;5109400;28;20027;-83
2022/08/25 07:59:28;;;;;;;14.80;7.75;;;25.20;99.60;;;;;;5109077;28;20405;-82
2022/08/25 08:01:54;;;;;;;12.52;6.57;;;25.30;99.80;;;;;;5111074;28;20032;-83
2022/08/25 08:04:19;;;;;;;10.30;6.60;;;25.40;99.70;;;;;;5111561;28;20092;-84
2022/08/25 08:06:45;;;;;;;12.00;6.97;;;25.60;99.30;;;;;;5111094;28;20059;-85
2022/08/25 08:09:11;;;;;;;14.82;6.95;;;25.70;98.90;;;;;;5111578;28;20051;-83
2022/08/25 08:11:39;;;;;;;15.20;6.70;;;25.70;98.90;;;;;;5110725;28;20061;-84
2022/08/25 08:14:06;;;;;;;9.40;6.95;;;25.70;99.00;;;;;;5111837;28;20027;-83
2022/08/25 08:16:32;;;;;;;10.55;6.78;;;25.80;98.80;;;;;;5110909;28;20059;-82
2022/08/25 08:18:58;;;;;;;15.23;6.97;;;25.90;98.50;;;;;;5107849;28;20734;-83
2022/08/25 08:21:29;;;;;;;11.35;6.78;;;25.90;98.80;;;;;;5110183;28;20042;-83
2022/08/25 08:23:56;;;;;;;10.13;6.53;;;26.00;98.90;;;;;;5110161;28;20032;-82
2022/08/25 08:26:22;;;;;;;15.27;6.43;;;26.10;98.40;;;;;;5110681;28;20036;-82
2022/08/25 08:28:49;;;;;;;10.63;6.65;;;26.20;98.50;;;;;;5111140;28;20035;-82
2022/08/25 08:31:18;;;;;;;12.63;6.57;;;26.40;98.50;;;;;;5109990;28;20081;-83
2022/08/25 08:33:45;;;;;;;9.82;6.63;;;26.40;98.20;;;;;;5110633;28;20028;-82
2022/08/25 08:36:11;;;;;;;14.25;6.38;;;26.60;98.20;;;;;;5110209;28;20024;-82
2022/08/25 08:38:38;;;;;;;13.45;6.82;;;26.70;97.90;;;;;;5104431;28;20027;-82
2022/08/25 08:44:42;;;;;;;10.07;6.85;;;26.90;97.30;;;;;;5110924;28;20070;-83
2022/08/25 08:47:31;;;;;;;12.18;6.25;;;27.00;97.60;;;;;;5111318;28;20042;-83
2022/08/25 08:50:06;;;;;;;14.50;6.47;;;27.10;97.30;;;;;;5105284;28;20024;-83
2022/08/25 08:52:42;;;;;;;14.57;6.90;;;27.20;97.00;;;;;;5112738;28;20031;-83
2022/08/25 08:55:29;;;;;;;11.45;5.90;;;27.30;96.50;;;;;;5112563;28;20035;-83
2022/08/25 08:57:57;;;;;;;11.20;6.80;;;27.40;96.60;;;;;;5091015;28;20131;-82
2022/08/25 09:00:23;;;;;;;12.07;7.25;;;27.40;96.30;;;;;;5090310;28;20032;-83
2022/08/25 09:02:59;;;;;;;12.95;6.35;;;27.40;96.70;;;;;;5104236;28;20023;-81
2022/08/25 09:05:28;;;;;;;16.35;6.57;;;27.50;96.20;;;;;;5109490;28;20122;-83
2022/08/25 09:07:57;;;;;;;14.43;7.47;;;27.60;96.00;;;;;;5109968;28;20098;-83
2022/08/25 09:10:27;;;;;;;18.20;7.32;;;27.60;96.50;;;;;;5110535;28;20024;-84
2022/08/25 09:13:07;;;;;;;11.95;6.85;;;27.70;96.10;;;;;;5109535;28;20062;-83
2022/08/25 09:18:41;;;;;;;8.32;6.47;;;27.90;96.00;;;;;;5109019;28;20099;-82
2022/08/25 09:21:16;;;;;;;12.93;6.85;;;28.00;95.90;;;;;;5110688;28;20362;-83
2022/08/25 09:23:59;;;;;;;17.48;7.03;;;28.00;96.00;;;;;;5114685;28;20097;-83
2022/08/25 09:27:00;;;;;;;14.05;6.47;;;28.00;95.80;;;;;;5115751;28;20031;-82
2022/08/25 09:29:37;;;;;;;14.32;6.72;;;28.20;96.00;;;;;;5103629;28;20035;-83
2022/08/25 09:32:05;;;;;;;10.25;6.60;;;28.20;94.70;;;;;;5108946;28;20405;-84
2022/08/25 09:34:33;;;;;;;10.77;5.80;;;28.20;95.30;;;;;;5115937;28;20035;-82
2022/08/25 09:37:00;;;;;;;16.45;6.93;;;28.20;95.00;;;;;;5118499;28;20027;-84
2022/08/25 09:39:25;;;;;;;15.73;6.38;;;28.20;95.30;;;;;;5109744;28;20084;-84
2022/08/25 09:41:57;;;;;;;8.68;5.85;;;28.20;94.70;;;;;;5111809;28;20020;-82
2022/08/25 09:44:24;;;;;;;16.47;7.00;;;28.30;94.60;;;;;;5109564;28;20040;-83
2022/08/25 09:46:56;;;;;;;13.35;6.93;;;28.30;94.50;;;;;;5111192;28;20095;-83
2022/08/25 09:49:34;;;;;;;11.85;6.53;;;28.30;94.80;;;;;;5110665;28;20019;-83
2022/08/25 09:52:27;;;;;;;12.75;5.80;;;28.30;94.90;;;;;;5111258;28;20510;-85
2022/08/25 09:54:54;;;;;;;15.38;5.63;;;28.30;94.40;;;;;;5109777;28;20397;-82
2022/08/25 09:57:30;;;;;;;19.33;6.10;;;28.10;94.60;;;;;;5111138;28;20435;-82
2022/08/25 09:59:55;;;;;;;11.02;5.55;;;28.10;94.80;;;;;;5110637;28;20030;-82
2022/08/25 10:02:27;;;;;;;16.33;5.97;;;28.10;94.80;;;;;;5109927;28;20102;-83
2022/08/25 10:04:53;;;;;;;10.25;5.70;;;28.10;95.10;;;;;;5110398;28;20058;-83
2022/08/25 10:07:35;;;;;;;21.88;6.32;;;28.20;94.90;;;;;;5109326;28;20036;-82
2022/08/25 10:10:14;;;;;;;13.43;6.70;;;28.10;94.80;;;;;;5110603;28;20030;-83
2022/08/25 10:12:42;;;;;;;16.65;7.40;;;28.20;94.70;;;;;;5109399;28;20610;-82
2022/08/25 10:15:42;;;;;;;14.52;6.65;;;28.10;94.70;;;;;;5110847;28;20389;-81
2022/08/25 10:18:20;;;;;;;14.88;7.22;;;28.10;95.40;;;;;;5112888;28;20700;-81
2022/08/25 10:21:01;;;;;;;14.43;7.00;;;28.20;95.60;;;;;;5117688;28;20470;-82
2022/08/25 10:23:27;;;;;;;16.83;6.43;;;28.20;95.00;;;;;;5114109;28;20718;-83
2022/08/25 10:25:54;;;;;;;16.75;6.90;;;28.30;94.80;;;;;;5111061;28;20123;-82
2022/08/25 10:28:36;;;;;;;14.07;6.85;;;28.30;94.50;;;;;;5108627;28;20028;-82
2022/08/25 10:31:17;;;;;;;11.98;5.93;;;28.30;94.40;;;;;;5111825;27;20087;-83
2022/08/25 10:34:20;;;;;;;10.85;6.55;;;28.20;94.70;;;;;;5111786;28;20027;-83
2022/08/25 10:37:02;;;;;;;12.35;6.40;;;28.20;94.30;;;;;;5110312;28;20031;-84
2022/08/25 10:40:07;;;;;;;12.52;6.10;;;28.20;94.30;;;;;;5109704;28;20020;-82
2022/08/25 10:42:37;;;;;;;15.43;7.25;;;28.30;94.80;;;;;;5112664;28;20080;-79
2022/08/25 10:45:42;;;;;;;15.05;7.22;;;28.50;94.50;;;;;;5120766;28;20038;-78
2022/08/25 10:48:09;;;;;;;15.52;6.53;;;28.40;94.80;;;;;;5100343;28;20097;-79
2022/08/25 10:50:41;;;;;;;13.50;6.13;;;28.70;93.70;;;;;;5123215;28;20004;-78
2022/08/25 10:53:24;;;;;;;17.08;6.70;;;28.80;94.00;;;;;;5141647;27;20065;-78
2022/08/25 10:56:21;;;;;;;19.73;5.75;;;29.00;93.70;;;;;;5121691;27;20027;-80
2022/08/25 10:59:21;;;;;;;19.33;5.75;;;29.20;93.40;;;;;;5119080;28;20091;-82
2022/08/25 11:02:28;;;;;;;14.57;7.22;;;29.60;93.50;;;;;;5116676;28;20449;-80
2022/08/25 11:05:17;;;;;;;15.15;5.35;;;29.90;92.60;;;;;;5115781;28;20051;-82
2022/08/25 11:07:50;;;;;;;24.25;6.55;;;30.20;92.20;;;;;;5113334;27;20024;-81
2022/08/25 11:10:21;;;;;;;16.02;6.72;;;30.50;91.90;;;;;;5108549;28;20073;-81
2022/08/25 11:12:56;;;;;;;19.30;6.30;;;30.70;91.70;;;;;;5115330;27;20098;-82
2022/08/25 11:15:33;;;;;;;16.85;6.63;;;30.90;90.70;;;;;;5093245;28;20077;-81
2022/08/25 11:18:03;;;;;;;14.13;5.75;;;31.10;90.20;;;;;;5095208;28;20036;-82
2022/08/25 11:20:39;;;;;;;24.88;6.20;;;31.10;90.10;;;;;;5105902;28;20027;-82
2022/08/25 11:23:20;;;;;;;14.15;5.90;;;30.90;90.00;;;;;;5115312;27;20031;-81
2022/08/25 11:25:50;;;;;;;13.65;6.60;;;30.70;90.30;;;;;;5114740;28;20031;-81
2022/08/25 11:28:25;;;;;;;13.27;5.07;;;30.80;90.30;;;;;;5115595;27;20028;-83
2022/08/25 11:30:54;;;;;;;15.73;5.82;;;30.90;90.10;;;;;;5114191;28;20022;-81
2022/08/25 11:33:23;;;;;;;15.50;4.93;;;31.10;90.50;;;;;;5114282;28;20028;-82
2022/08/25 11:35:57;;;;;;;15.30;5.40;;;31.30;89.60;;;;;;5098978;27;20028;-81
2022/08/25 11:38:48;;;;;;;17.52;4.80;;;31.40;90.10;;;;;;5106967;28;20707;-81
2022/08/25 11:41:34;;;;;;;19.52;5.95;;;31.50;90.10;;;;;;5114121;27;20043;-82
2022/08/25 11:44:20;;;;;;;19.75;6.53;;;31.60;88.40;;;;;;5107295;28;20545;-82
2022/08/25 11:46:51;;;;;;;14.40;5.72;;;31.60;87.90;;;;;;5114005;28;20028;-81
2022/08/25 11:49:36;;;;;;;15.15;5.18;;;31.40;87.70;;;;;;5114457;27;20028;-81
2022/08/25 11:52:03;;;;;;;23.15;5.85;;;31.40;88.40;;;;;;5115319;27;20020;-81
2022/08/25 11:54:43;;;;;;;23.67;5.68;;;31.60;87.00;;;;;;5111595;28;20032;-83
2022/08/25 11:57:20;;;;;;;15.20;5.25;;;31.40;88.20;;;;;;5101579;28;20028;-82
2022/08/25 11:59:48;;;;;;;14.82;5.28;;;31.30;87.40;;;;;;5090083;28;20051;-81
2022/08/25 12:02:37;;;;;;;14.60;6.07;;;31.10;87.80;;;;;;5091172;28;20039;-82
2022/08/25 12:05:10;;;;;;;11.70;5.05;;;31.10;89.50;;;;;;5091751;28;20028;-83
2022/08/25 12:11:00;;;;;;;16.75;5.22;;;31.30;86.80;;;;;;5111935;28;20182;-82
2022/08/25 12:13:48;;;;;;;26.08;5.25;;;31.20;86.20;;;;;;5111715;28;20023;-82
2022/08/25 12:16:54;;;;;;;20.50;4.95;;;31.20;86.80;;;;;;5111081;28;20036;-82
2022/08/25 12:19:48;;;;;;;15.85;5.43;;;31.10;85.20;;;;;;5110560;28;20024;-83
2022/08/25 12:22:17;;;;;;;21.95;5.63;;;31.00;87.20;;;;;;5109046;28;20043;-82
2022/08/25 12:24:43;;;;;;;15.02;4.90;;;30.90;86.90;;;;;;5109890;28;20034;-81
2022/08/25 12:27:28;;;;;;;18.95;4.95;;;30.90;86.60;;;;;;5110895;28;20043;-81
2022/08/25 12:30:20;;;;;;;15.13;5.70;;;30.80;88.20;;;;;;5110918;28;20024;-80
2022/08/25 12:33:12;;;;;;;16.42;4.82;;;31.00;88.20;;;;;;5111186;28;20545;-81
2022/08/25 12:36:01;;;;;;;18.48;4.65;;;31.10;86.60;;;;;;5110022;28;20565;-82
2022/08/25 12:38:43;;;;;;;11.20;4.40;;;31.10;86.70;;;;;;5110803;28;20035;-81
2022/08/25 12:41:17;;;;;;;17.40;5.30;;;31.10;86.50;;;;;;5090382;28;20032;-82
2022/08/25 12:43:46;;;;;;;17.23;4.88;;;30.90;87.10;;;;;;5100968;28;20023;-81
2022/08/25 12:46:25;;;;;;;18.83;4.78;;;30.90;87.20;;;;;;5110922;28;20373;-83
2022/08/25 12:49:28;;;;;;;20.27;5.40;;;30.90;87.40;;;;;;5110208;28;20095;-83
2022/08/25 12:52:01;;;;;;;22.90;4.78;;;31.00;85.80;;;;;;5112498;27;20043;-82
2022/08/25 12:54:35;;;;;;;13.50;4.85;;;31.10;86.30;;;;;;5103521;28;20039;-82
2022/08/25 12:57:11;;;;;;;12.05;5.13;;;31.10;88.00;;;;;;5110561;28;20031;-81
2022/08/25 12:59:41;;;;;;;26.70;4.97;;;31.00;85.90;;;;;;5109888;28;20035;-81
2022/08/25 13:02:18;;;;;;;17.15;4.50;;;31.10;85.80;;;;;;5109389;28;20038;-82
2022/08/25 13:05:01;;;;;;;8.82;4.28;;;31.10;86.00;;;;;;5105858;28;20512;-82
2022/08/25 13:07:55;;;;;;;14.95;4.28;;;31.30;86.30;;;;;;5107191;28;20481;-83